createdAt,value
2018-07-14T00:02:01.237Z,5.7
2018-07-14T00:07:01.091Z,5.4
2018-07-14T00:12:01.159Z,5.5
2018-07-14T00:17:01.096Z,5.6
2018-07-14T00:22:01.165Z,6.0
2018-07-14T00:27:01.130Z,6.3
2018-07-14T00:32:06.166Z,6.6
2018-07-14T00:37:06.111Z,6.2
2018-07-14T00:42:01.221Z,6.3
2018-07-14T00:47:01.114Z,5.8
2018-07-14T00:52:01.103Z,5.4
2018-07-14T00:57:01.099Z,5.0
2018-07-14T01:02:01.106Z,4.6
2018-07-14T01:07:06.097Z,4.0
2018-07-14T01:12:01.195Z,4.1
2018-07-14T01:17:06.102Z,4.0
2018-07-14T01:22:06.176Z,3.9
2018-07-14T01:28:01.094Z,4.0
2018-07-14T01:33:06.157Z,4.2
2018-07-14T01:38:01.100Z,4.1
2018-07-14T01:43:06.172Z,4.2
2018-07-14T01:48:01.103Z,4.4
2018-07-14T01:58:01.116Z,4.1
2018-07-14T02:03:01.194Z,3.8
2018-07-14T02:18:01.207Z,3.4
2018-07-14T02:28:01.282Z,3.6
2018-07-14T02:39:01.163Z,3.4
2018-07-14T02:44:06.102Z,3.6
2018-07-14T02:54:01.144Z,3.4
2018-07-14T03:10:01.160Z,3.4
2018-07-14T03:15:01.163Z,3.4
2018-07-14T03:20:01.165Z,3.2
2018-07-14T03:25:01.100Z,2.9
2018-07-14T03:30:01.231Z,2.7
2018-07-14T03:35:01.102Z,2.9
2018-07-14T03:45:01.186Z,3.4
2018-07-14T03:50:01.245Z,3.8
2018-07-14T03:55:01.104Z,3.9
2018-07-14T04:00:01.229Z,3.6
2018-07-14T04:05:01.099Z,3.7
2018-07-14T04:10:01.230Z,3.3
2018-07-14T04:15:01.101Z,3.0
2018-07-14T04:26:01.224Z,3.1
2018-07-14T04:31:01.179Z,3.0
2018-07-14T04:36:01.097Z,3.1
2018-07-14T04:46:01.166Z,3.0
2018-07-14T04:51:01.170Z,3.2
2018-07-14T04:56:01.106Z,3.5
2018-07-14T05:01:01.171Z,3.6
2018-07-14T05:11:01.106Z,3.8
2018-07-14T05:16:06.101Z,3.4
2018-07-14T05:21:06.251Z,3.1
2018-07-14T05:26:06.106Z,2.9
2018-07-14T05:31:06.180Z,2.8
2018-07-14T05:36:01.144Z,2.9
2018-07-14T05:42:06.161Z,3.0
2018-07-14T05:52:06.190Z,2.9
2018-07-14T05:57:06.103Z,2.8
2018-07-14T06:02:06.235Z,2.4
2018-07-14T06:07:06.108Z,2.2
2018-07-14T06:17:06.095Z,2.4
2018-07-14T06:22:06.155Z,2.6
2018-07-14T06:27:06.092Z,2.8
2018-07-14T06:37:01.167Z,2.7
2018-07-14T06:42:01.169Z,2.4
2018-07-14T06:47:01.101Z,2.2
2018-07-14T06:53:01.156Z,2.0
2018-07-14T06:58:01.089Z,2.4
2018-07-14T07:03:01.161Z,2.6
2018-07-14T07:13:01.228Z,2.9
2018-07-14T07:23:06.105Z,2.4
2018-07-14T07:33:01.091Z,2.6
2018-07-14T07:43:01.121Z,2.8
2018-07-14T07:48:01.097Z,3.0
2018-07-14T08:03:01.106Z,2.8
2018-07-14T08:08:01.095Z,2.6
2018-07-14T08:13:01.094Z,2.4
2018-07-14T08:18:01.102Z,2.2
2018-07-14T08:33:01.103Z,2.2
2018-07-14T08:38:01.134Z,2.1
2018-07-14T08:44:01.097Z,2.2
2018-07-14T08:49:01.097Z,2.1
2018-07-14T09:04:01.107Z,2.3
2018-07-14T09:14:01.107Z,2.4
2018-07-14T09:29:01.099Z,2.2
2018-07-14T09:34:01.098Z,2.5
2018-07-14T09:39:01.120Z,2.4
2018-07-14T09:54:01.111Z,2.2
2018-07-14T09:59:01.118Z,1.8
2018-07-14T10:14:01.100Z,1.8
2018-07-14T10:19:01.101Z,2.2
2018-07-14T10:29:01.183Z,2.3
2018-07-14T10:44:01.099Z,2.0
2018-07-14T10:54:02.127Z,1.8
2018-07-14T11:04:01.151Z,1.9
2018-07-14T11:14:01.092Z,2.1
2018-07-14T11:19:01.094Z,2.2
2018-07-14T11:24:01.097Z,2.5
2018-07-14T11:29:01.104Z,2.7
2018-07-14T11:39:01.158Z,2.6
2018-07-14T11:49:01.125Z,2.4
2018-07-14T12:04:01.191Z,2.6
2018-07-14T12:09:02.154Z,3.0
2018-07-14T12:14:01.107Z,2.9
2018-07-14T12:19:01.110Z,2.8
2018-07-14T12:24:01.091Z,2.9
2018-07-14T12:29:01.090Z,3.0
2018-07-14T12:34:01.096Z,2.8
2018-07-14T12:39:01.095Z,2.9
2018-07-14T12:44:06.105Z,3.2
2018-07-14T12:49:06.107Z,3.3
2018-07-14T12:54:06.101Z,3.4
2018-07-14T13:04:06.106Z,3.3
2018-07-14T13:19:01.097Z,3.4
2018-07-14T13:24:01.100Z,3.2
2018-07-14T13:29:01.106Z,3.4
2018-07-14T13:34:06.106Z,3.3
2018-07-14T13:39:01.165Z,3.7
2018-07-14T13:44:01.130Z,3.6
2018-07-14T13:54:01.091Z,3.8
2018-07-14T14:04:06.174Z,3.7
2018-07-14T14:09:06.166Z,4.0
2018-07-14T14:14:01.112Z,4.4
2018-07-14T14:19:01.114Z,4.2
2018-07-14T14:24:01.120Z,4.4
2018-07-14T14:29:01.098Z,5.1
2018-07-14T14:34:01.100Z,4.9
2018-07-14T14:39:01.166Z,5.0
2018-07-14T14:44:01.110Z,5.4
2018-07-14T14:49:01.114Z,5.3
2018-07-14T14:54:01.102Z,4.9
2018-07-14T15:05:01.089Z,4.7
2018-07-14T15:10:01.111Z,4.9
2018-07-14T15:15:01.097Z,4.9
2018-07-14T15:20:01.099Z,4.5
2018-07-14T15:25:01.103Z,4.7
2018-07-14T15:30:01.146Z,4.7
2018-07-14T15:35:01.086Z,4.4
2018-07-14T15:45:01.097Z,4.4
2018-07-14T15:50:01.102Z,4.5
2018-07-14T15:55:06.099Z,5.0
2018-07-14T16:00:01.107Z,5.0
2018-07-14T16:05:01.103Z,5.4
2018-07-14T16:15:01.096Z,5.4
2018-07-14T16:20:01.094Z,5.0
2018-07-14T16:25:01.096Z,5.2
2018-07-14T16:30:01.105Z,5.2
2018-07-14T16:35:06.105Z,6.0
2018-07-14T16:40:01.145Z,5.8
2018-07-14T16:45:01.112Z,6.0
2018-07-14T16:50:01.178Z,6.1
2018-07-14T16:56:01.090Z,5.8
2018-07-14T17:01:01.096Z,5.5
2018-07-14T17:06:01.100Z,5.9
2018-07-14T17:11:06.165Z,6.0
2018-07-14T17:16:01.138Z,6.2
2018-07-14T17:21:01.151Z,6.7
2018-07-14T17:26:06.091Z,6.9
2018-07-14T17:31:01.136Z,6.8
2018-07-14T17:36:01.175Z,6.7
2018-07-14T17:41:01.124Z,6.3
2018-07-14T17:51:01.102Z,6.4
2018-07-14T18:02:01.092Z,6.3
2018-07-14T18:07:01.092Z,6.4
2018-07-14T18:12:01.095Z,6.8
2018-07-14T18:17:01.098Z,6.6
2018-07-14T18:22:01.098Z,6.8
2018-07-14T18:27:01.128Z,7.1
2018-07-14T18:37:01.096Z,6.6
2018-07-14T18:42:01.093Z,6.4
2018-07-14T18:47:01.092Z,6.2
2018-07-14T18:52:01.097Z,6.0
2018-07-14T18:57:01.101Z,6.6
2018-07-14T19:02:01.102Z,7.0
2018-07-14T19:07:01.103Z,7.2
2018-07-14T19:12:01.111Z,7.9
2018-07-14T19:22:01.093Z,7.5
2018-07-14T19:27:01.108Z,7.1
2018-07-14T19:32:01.101Z,6.8
2018-07-14T19:37:01.105Z,6.5
2018-07-14T19:45:00.277Z,3.8
2018-07-14T19:50:00.489Z,6.4
2018-07-14T19:55:00.470Z,6.7
2018-07-14T20:00:01.045Z,5.2
2018-07-14T20:05:01.016Z,5.4
2018-07-14T20:10:01.091Z,5.9
2018-07-14T20:15:01.021Z,6.5
2018-07-14T20:20:01.025Z,6.8
2018-07-14T20:25:01.026Z,7.3
2018-07-14T20:40:00.586Z,9.0
2018-07-14T20:45:00.589Z,10.3
2018-07-14T20:50:00.588Z,9.7
2018-07-14T21:00:00.591Z,9.3
2018-07-14T21:05:00.593Z,9.5
2018-07-14T21:10:00.590Z,9.2
2018-07-14T21:15:00.625Z,8.9
2018-07-14T21:20:00.630Z,9.2
2018-07-14T21:25:00.626Z,9.1
2018-07-14T21:30:00.639Z,8.5
2018-07-14T21:40:00.598Z,8.8
2018-07-14T21:45:00.611Z,8.9
2018-07-14T21:50:00.606Z,9.5
2018-07-14T21:55:00.612Z,10.0
2018-07-14T22:00:00.611Z,10.0
2018-07-14T22:05:00.611Z,10.4
2018-07-14T22:10:00.609Z,9.7
2018-07-14T22:15:00.616Z,10.4
2018-07-14T22:20:00.632Z,10.7
2018-07-14T22:25:00.610Z,10.2
2018-07-14T22:30:00.614Z,9.9
2018-07-14T22:40:00.620Z,9.2
2018-07-14T22:45:00.618Z,8.9
2018-07-14T22:50:00.622Z,9.3
2018-07-14T22:55:00.626Z,10.1
2018-07-14T23:00:00.630Z,10.4
2018-07-14T23:05:00.630Z,10.6
2018-07-14T23:10:00.629Z,10.9
2018-07-14T23:15:00.636Z,11.3
2018-07-14T23:25:00.661Z,11.4
2018-07-14T23:30:00.637Z,12.0
2018-07-14T23:35:00.658Z,11.8
2018-07-14T23:40:00.669Z,12.3
2018-07-14T23:45:00.637Z,13.7
2018-07-14T23:50:00.681Z,13.8
